Time;durP1;ratioP1;P1;durP2;ratioP2;P2;SDS_P1;SDS_P2;PMS_P1;PMS_P2;Temp;Humidity;BMP_temperature;BMP_pressure;BME280_temperature;BME280_humidity;BME280_pressure;Samples;Min_cycle;Max_cycle;Signal;HPM_P1;HPM_P2
2021/09/23 00:00:52;;;;;;;2.60;1.60;;;;;;;;;;21165671;28;20051;-59
2021/09/23 00:10:54;;;;;;;2.60;1.42;;;;;;;;;;21175450;28;20128;-62
2021/09/23 00:20:56;;;;;;;3.15;1.50;;;;;;;;;;21174607;28;20067;-63
2021/09/23 00:30:58;;;;;;;2.88;1.45;;;;;;;;;;21173576;28;20480;-65
2021/09/23 00:41:00;;;;;;;2.15;1.35;;;;;;;;;;21173172;28;20503;-63
2021/09/23 00:51:02;;;;;;;2.60;1.48;;;;;;;;;;21172322;28;20051;-61
2021/09/23 01:01:04;;;;;;;2.70;1.30;;;;;;;;;;21171299;28;20054;-62
2021/09/23 01:11:06;;;;;;;2.35;1.33;;;;;;;;;;21168481;28;20051;-65
2021/09/23 01:21:10;;;;;;;3.08;1.40;;;;;;;;;;21169240;28;20054;-60
2021/09/23 01:31:12;;;;;;;2.65;1.60;;;;;;;;;;21168491;28;20044;-56
2021/09/23 01:41:15;;;;;;;4.63;1.67;;;;;;;;;;21167973;28;20039;-61
2021/09/23 01:51:24;;;;;;;2.25;1.48;;;;;;;;;;21167056;28;20502;-57
2021/09/23 02:01:39;;;;;;;4.65;1.63;;;;;;;;;;21166051;28;20468;-51
2021/09/23 02:11:46;;;;;;;2.08;1.30;;;;;;;;;;21164942;28;20047;-51
2021/09/23 02:21:49;;;;;;;3.70;1.52;;;;;;;;;;21165198;28;20443;-51
2021/09/23 02:31:53;;;;;;;2.27;1.47;;;;;;;;;;21164447;28;20054;-50
2021/09/23 02:41:56;;;;;;;4.60;1.70;;;;;;;;;;21164171;28;20298;-50
2021/09/23 02:51:59;;;;;;;2.53;1.60;;;;;;;;;;21162880;28;20139;-51
2021/09/23 03:02:11;;;;;;;2.17;1.60;;;;;;;;;;21162396;28;20051;-51
2021/09/23 03:12:22;;;;;;;3.22;1.77;;;;;;;;;;21162386;28;20047;-51
2021/09/23 03:22:29;;;;;;;3.70;1.70;;;;;;;;;;21162152;28;20503;-51
2021/09/23 03:32:34;;;;;;;2.45;1.80;;;;;;;;;;21161365;28;20091;-52
2021/09/23 03:42:38;;;;;;;3.87;1.83;;;;;;;;;;21175902;28;20053;-50
2021/09/23 03:52:47;;;;;;;3.70;1.98;;;;;;;;;;21176310;28;20050;-51
2021/09/23 04:02:51;;;;;;;3.72;2.00;;;;;;;;;;21175436;28;20197;-51
2021/09/23 04:13:09;;;;;;;5.45;2.33;;;;;;;;;;21175401;28;20047;-53
2021/09/23 04:23:17;;;;;;;3.75;2.10;;;;;;;;;;21173953;28;20079;-50
2021/09/23 04:33:27;;;;;;;3.75;1.77;;;;;;;;;;21173572;28;20073;-52
2021/09/23 04:43:40;;;;;;;4.57;2.10;;;;;;;;;;21173843;28;20066;-51
2021/09/23 04:54:00;;;;;;;3.35;2.25;;;;;;;;;;21171472;28;20048;-50
2021/09/23 05:04:02;;;;;;;3.17;2.33;;;;;;;;;;21171068;28;20051;-50
2021/09/23 05:14:04;;;;;;;3.88;2.25;;;;;;;;;;21169487;28;20051;-52
2021/09/23 05:24:06;;;;;;;3.80;2.20;;;;;;;;;;21168920;28;20104;-51
2021/09/23 05:34:09;;;;;;;2.63;1.95;;;;;;;;;;21167666;28;20095;-51
2021/09/23 05:44:12;;;;;;;3.67;2.30;;;;;;;;;;21167831;28;20406;-55
2021/09/23 05:54:15;;;;;;;3.87;2.40;;;;;;;;;;21166634;28;20073;-53
2021/09/23 06:04:17;;;;;;;3.78;2.08;;;;;;;;;;21165082;28;20052;-56
2021/09/23 06:14:20;;;;;;;4.60;2.33;;;;;;;;;;21165322;28;20054;-53
2021/09/23 06:24:23;;;;;;;5.20;2.37;;;;;;;;;;21164289;28;20100;-52
2021/09/23 06:34:26;;;;;;;3.65;2.75;;;;;;;;;;21163271;28;20044;-50
2021/09/23 06:44:31;;;;;;;3.28;2.67;;;;;;;;;;21162891;28;20130;-50
2021/09/23 06:54:34;;;;;;;7.63;3.03;;;;;;;;;;21162884;28;20052;-51
2021/09/23 07:04:36;;;;;;;3.53;2.97;;;;;;;;;;21162362;28;20410;-65
2021/09/23 07:14:38;;;;;;;5.15;2.67;;;;;;;;;;21175103;28;20055;-56
2021/09/23 07:24:41;;;;;;;7.13;2.53;;;;;;;;;;21178817;28;20079;-61
2021/09/23 07:34:45;;;;;;;7.15;3.05;;;;;;;;;;21177973;28;20052;-64
2021/09/23 07:44:48;;;;;;;6.03;2.30;;;;;;;;;;21177544;28;20406;-65
2021/09/23 07:54:55;;;;;;;4.95;2.13;;;;;;;;;;21176005;28;20051;-53
2021/09/23 08:04:57;;;;;;;6.22;2.85;;;;;;;;;;21157637;28;20052;-62
2021/09/23 08:14:59;;;;;;;4.65;2.28;;;;;;;;;;21174971;28;20051;-63
2021/09/23 08:25:04;;;;;;;3.35;2.03;;;;;;;;;;21174098;28;20097;-65
2021/09/23 08:35:07;;;;;;;3.13;2.10;;;;;;;;;;21174279;28;20048;-64
2021/09/23 08:45:11;;;;;;;5.90;2.30;;;;;;;;;;21173418;28;20063;-62
2021/09/23 08:55:40;;;;;;;9.15;2.25;;;;;;;;;;21171424;28;20051;-57
2021/09/23 09:05:51;;;;;;;5.60;1.98;;;;;;;;;;21156867;28;20051;-49
2021/09/23 09:15:53;;;;;;;3.35;2.13;;;;;;;;;;21167447;28;20536;-53
2021/09/23 09:25:55;;;;;;;4.85;1.73;;;;;;;;;;21167742;28;20043;-53
2021/09/23 09:35:57;;;;;;;3.58;1.67;;;;;;;;;;21167619;28;20446;-57
2021/09/23 09:45:58;;;;;;;3.50;1.60;;;;;;;;;;21163408;28;20109;-55
2021/09/23 09:56:00;;;;;;;4.88;1.98;;;;;;;;;;21133609;28;20048;-51
2021/09/23 10:06:02;;;;;;;4.22;1.92;;;;;;;;;;21114802;28;20044;-50
2021/09/23 10:16:04;;;;;;;5.78;1.95;;;;;;;;;;21106327;28;20052;-52
2021/09/23 10:26:06;;;;;;;3.63;1.70;;;;;;;;;;21082553;28;20454;-67
2021/09/23 10:36:08;;;;;;;5.63;1.70;;;;;;;;;;21138237;28;20075;-52
2021/09/23 10:46:11;;;;;;;4.17;1.80;;;;;;;;;;21115868;28;20047;-56
2021/09/23 10:56:14;;;;;;;3.42;1.67;;;;;;;;;;21148470;28;20086;-54
2021/09/23 11:06:15;;;;;;;3.90;1.83;;;;;;;;;;21099851;28;20052;-51
2021/09/23 11:16:18;;;;;;;5.38;1.85;;;;;;;;;;21151737;28;20073;-58
2021/09/23 11:26:21;;;;;;;5.75;1.75;;;;;;;;;;21162084;28;20044;-53
2021/09/23 11:36:26;;;;;;;2.47;1.23;;;;;;;;;;21162493;28;20043;-52
2021/09/23 11:46:34;;;;;;;3.08;1.20;;;;;;;;;;21160965;28;20047;-51
2021/09/23 11:56:41;;;;;;;2.63;1.30;;;;;;;;;;21163623;28;20479;-55
2021/09/23 12:06:43;;;;;;;1.75;1.25;;;;;;;;;;21174885;28;20089;-51
2021/09/23 12:16:45;;;;;;;4.38;1.70;;;;;;;;;;21155890;28;20074;-52
2021/09/23 12:26:48;;;;;;;3.45;1.58;;;;;;;;;;21174497;28;20056;-54
2021/09/23 12:36:51;;;;;;;5.00;1.67;;;;;;;;;;21172979;28;20051;-58
2021/09/23 12:47:10;;;;;;;4.45;1.70;;;;;;;;;;21153739;28;20055;-53
2021/09/23 12:57:16;;;;;;;3.75;1.60;;;;;;;;;;21181149;28;20051;-64
2021/09/23 13:07:21;;;;;;;2.25;1.40;;;;;;;;;;21172123;28;20058;-53
2021/09/23 13:17:26;;;;;;;3.33;1.30;;;;;;;;;;21170020;28;20047;-59
2021/09/23 13:27:29;;;;;;;2.45;1.20;;;;;;;;;;21169450;28;20043;-57
2021/09/23 13:37:31;;;;;;;2.78;1.17;;;;;;;;;;21168450;28;20047;-60
2021/09/23 13:47:33;;;;;;;4.37;1.50;;;;;;;;;;21167282;28;20100;-53
2021/09/23 13:57:36;;;;;;;8.55;2.00;;;;;;;;;;21166077;28;20086;-54
2021/09/23 14:07:39;;;;;;;9.00;2.35;;;;;;;;;;21148068;28;20070;-59
2021/09/23 14:17:43;;;;;;;4.93;1.50;;;;;;;;;;21165526;28;20051;-55
2021/09/23 14:27:46;;;;;;;6.70;1.70;;;;;;;;;;21165599;28;20495;-53
2021/09/23 14:37:48;;;;;;;;;;;;;;;;;;21163984;28;20122;-55
2021/09/23 14:47:50;;;;;;;10.30;1.85;;;;;;;;;;21163638;28;19970;-61
2021/09/23 14:57:52;;;;;;;10.13;2.53;;;;;;;;;;21163054;28;20525;-55
2021/09/23 15:07:54;;;;;;;7.53;1.90;;;;;;;;;;21162121;28;20054;-53
2021/09/23 15:17:56;;;;;;;4.33;1.93;;;;;;;;;;21162150;28;20055;-54
2021/09/23 15:27:59;;;;;;;3.93;1.27;;;;;;;;;;21162360;28;20051;-54
2021/09/23 15:38:01;;;;;;;2.85;1.42;;;;;;;;;;21176981;28;20047;-55
2021/09/23 15:48:04;;;;;;;3.47;1.63;;;;;;;;;;21177660;28;20380;-56
2021/09/23 15:58:06;;;;;;;4.68;2.00;;;;;;;;;;21177063;28;20495;-51
2021/09/23 16:08:08;;;;;;;4.13;1.65;;;;;;;;;;21175499;28;20051;-51
2021/09/23 16:18:13;;;;;;;6.30;2.30;;;;;;;;;;21174453;28;20108;-54
2021/09/23 16:28:16;;;;;;;7.80;2.15;;;;;;;;;;21173366;28;20051;-50
2021/09/23 16:38:17;;;;;;;4.70;1.25;;;;;;;;;;21167635;28;20475;-51
2021/09/23 16:48:19;;;;;;;3.10;1.50;;;;;;;;;;21167448;28;20101;-60
2021/09/23 16:58:21;;;;;;;4.30;1.77;;;;;;;;;;21167517;28;20062;-58
2021/09/23 17:08:22;;;;;;;5.53;1.60;;;;;;;;;;21172151;28;20486;-52
2021/09/23 17:18:24;;;;;;;3.60;1.50;;;;;;;;;;21169805;28;20070;-53
2021/09/23 17:28:26;;;;;;;7.37;1.90;;;;;;;;;;21170251;28;20061;-53
2021/09/23 17:38:28;;;;;;;4.90;1.97;;;;;;;;;;21150343;28;20052;-53
2021/09/23 17:48:29;;;;;;;11.07;2.67;;;;;;;;;;21167672;28;20487;-55
2021/09/23 17:58:31;;;;;;;6.00;2.17;;;;;;;;;;21165416;28;20052;-54
2021/09/23 18:08:33;;;;;;;7.33;2.60;;;;;;;;;;21165732;28;20047;-53
2021/09/23 18:18:35;;;;;;;6.00;2.30;;;;;;;;;;21163801;28;20056;-52
2021/09/23 18:28:37;;;;;;;5.63;2.53;;;;;;;;;;21161793;28;20537;-54
2021/09/23 18:38:39;;;;;;;6.03;2.20;;;;;;;;;;21161470;28;20124;-53
2021/09/23 18:48:41;;;;;;;9.40;3.43;;;;;;;;;;21162161;28;20514;-58
2021/09/23 18:58:43;;;;;;;7.07;1.93;;;;;;;;;;21160396;28;20056;-62
2021/09/23 19:08:45;;;;;;;9.63;3.50;;;;;;;;;;21169887;28;20044;-62
2021/09/23 19:18:46;;;;;;;12.50;2.45;;;;;;;;;;21178632;28;20475;-60
2021/09/23 19:28:48;;;;;;;8.10;3.10;;;;;;;;;;21177760;28;20403;-60
2021/09/23 19:38:50;;;;;;;9.30;2.90;;;;;;;;;;21176651;28;20052;-60
2021/09/23 19:48:52;;;;;;;10.68;3.35;;;;;;;;;;21190887;28;20058;-55
2021/09/23 19:58:54;;;;;;;12.73;4.27;;;;;;;;;;21182478;28;20059;-58
2021/09/23 20:08:55;;;;;;;10.52;3.70;;;;;;;;;;21173835;28;20403;-55
2021/09/23 20:18:57;;;;;;;15.80;3.70;;;;;;;;;;21173424;28;20079;-54
2021/09/23 20:28:59;;;;;;;15.00;2.67;;;;;;;;;;21175548;28;20483;-55
2021/09/23 20:39:01;;;;;;;11.73;3.40;;;;;;;;;;21173855;28;20494;-53
2021/09/23 20:49:03;;;;;;;10.80;2.88;;;;;;;;;;21173242;28;20518;-53
2021/09/23 20:59:05;;;;;;;19.83;4.45;;;;;;;;;;21171979;28;20051;-54
2021/09/23 21:09:06;;;;;;;20.63;5.55;;;;;;;;;;21171379;28;20040;-51
2021/09/23 21:19:08;;;;;;;14.90;4.80;;;;;;;;;;21170341;28;20132;-53
2021/09/23 21:29:11;;;;;;;19.52;4.70;;;;;;;;;;21169754;28;20467;-51
2021/09/23 21:39:12;;;;;;;12.07;4.47;;;;;;;;;;21169071;28;20059;-54
2021/09/23 21:49:14;;;;;;;14.95;4.80;;;;;;;;;;21168359;28;20047;-54
2021/09/23 21:59:16;;;;;;;16.55;5.03;;;;;;;;;;21166959;28;20104;-52
2021/09/23 22:09:18;;;;;;;15.38;5.07;;;;;;;;;;21167312;28;20051;-53
2021/09/23 22:19:19;;;;;;;10.88;3.67;;;;;;;;;;21166174;28;20083;-54
2021/09/23 22:29:21;;;;;;;12.57;3.78;;;;;;;;;;21165455;28;20043;-51
2021/09/23 22:39:23;;;;;;;13.60;3.55;;;;;;;;;;21164123;28;20048;-51
2021/09/23 22:49:25;;;;;;;17.80;4.55;;;;;;;;;;21164075;28;20499;-51
2021/09/23 22:59:27;;;;;;;11.15;3.58;;;;;;;;;;21163553;28;20074;-52
2021/09/23 23:09:29;;;;;;;6.30;3.08;;;;;;;;;;21162712;28;20491;-53
2021/09/23 23:19:31;;;;;;;4.18;2.65;;;;;;;;;;21163578;28;20048;-56
2021/09/23 23:29:32;;;;;;;5.85;3.17;;;;;;;;;;21162558;28;20407;-51
2021/09/23 23:39:34;;;;;;;6.00;2.28;;;;;;;;;;21162165;28;20044;-51
2021/09/23 23:49:36;;;;;;;10.68;2.80;;;;;;;;;;21161310;28;20048;-50
2021/09/23 23:59:38;;;;;;;4.40;2.15;;;;;;;;;;21176137;28;20491;-52
